sensor_id;sensor_type;location;lat;lon;timestamp;P1;durP1;ratioP1;P2;durP2;ratioP2
7539;SDS011;3811;49.006;12.076;2022-07-10T00:00:09;3.83;;;3.53;;
7539;SDS011;3811;49.006;12.076;2022-07-10T00:02:37;3.63;;;3.33;;
7539;SDS011;3811;49.006;12.076;2022-07-10T00:05:05;4.10;;;3.80;;
7539;SDS011;3811;49.006;12.076;2022-07-10T00:07:32;3.90;;;3.60;;
7539;SDS011;3811;49.006;12.076;2022-07-10T00:09:59;4.17;;;3.87;;
7539;SDS011;3811;49.006;12.076;2022-07-10T00:12:27;4.20;;;3.90;;
7539;SDS011;3811;49.006;12.076;2022-07-10T00:14:55;4.50;;;4.10;;
7539;SDS011;3811;49.006;12.076;2022-07-10T00:17:22;4.00;;;3.77;;
7539;SDS011;3811;49.006;12.076;2022-07-10T00:19:49;4.00;;;3.70;;
7539;SDS011;3811;49.006;12.076;2022-07-10T00:22:17;4.10;;;3.80;;
7539;SDS011;3811;49.006;12.076;2022-07-10T00:24:44;3.63;;;3.40;;
7539;SDS011;3811;49.006;12.076;2022-07-10T00:27:11;4.07;;;3.77;;
7539;SDS011;3811;49.006;12.076;2022-07-10T00:29:39;4.50;;;4.10;;
7539;SDS011;3811;49.006;12.076;2022-07-10T00:32:08;4.33;;;3.93;;
7539;SDS011;3811;49.006;12.076;2022-07-10T00:34:36;5.67;;;4.60;;
7539;SDS011;3811;49.006;12.076;2022-07-10T00:37:03;6.07;;;4.37;;
7539;SDS011;3811;49.006;12.076;2022-07-10T00:39:31;4.30;;;4.00;;
7539;SDS011;3811;49.006;12.076;2022-07-10T00:42:05;4.90;;;4.10;;
7539;SDS011;3811;49.006;12.076;2022-07-10T00:44:34;4.83;;;4.20;;
7539;SDS011;3811;49.006;12.076;2022-07-10T00:47:01;5.20;;;4.50;;
7539;SDS011;3811;49.006;12.076;2022-07-10T00:49:29;5.43;;;4.43;;
7539;SDS011;3811;49.006;12.076;2022-07-10T00:51:57;4.90;;;4.40;;
7539;SDS011;3811;49.006;12.076;2022-07-10T00:54:26;4.60;;;4.23;;
7539;SDS011;3811;49.006;12.076;2022-07-10T00:56:53;4.67;;;4.27;;
7539;SDS011;3811;49.006;12.076;2022-07-10T00:59:21;4.63;;;4.23;;
7539;SDS011;3811;49.006;12.076;2022-07-10T01:01:49;4.90;;;4.50;;
7539;SDS011;3811;49.006;12.076;2022-07-10T01:04:16;4.70;;;4.30;;
7539;SDS011;3811;49.006;12.076;2022-07-10T01:06:45;6.33;;;4.40;;
7539;SDS011;3811;49.006;12.076;2022-07-10T01:09:12;4.33;;;3.97;;
7539;SDS011;3811;49.006;12.076;2022-07-10T01:11:39;5.83;;;4.57;;
7539;SDS011;3811;49.006;12.076;2022-07-10T01:14:07;4.83;;;4.27;;
7539;SDS011;3811;49.006;12.076;2022-07-10T01:16:35;4.77;;;4.03;;
7539;SDS011;3811;49.006;12.076;2022-07-10T01:19:02;4.17;;;3.77;;
7539;SDS011;3811;49.006;12.076;2022-07-10T01:21:33;4.17;;;3.80;;
7539;SDS011;3811;49.006;12.076;2022-07-10T01:24:03;4.67;;;3.70;;
7539;SDS011;3811;49.006;12.076;2022-07-10T01:26:32;4.10;;;3.80;;
7539;SDS011;3811;49.006;12.076;2022-07-10T01:29:01;4.03;;;3.73;;
7539;SDS011;3811;49.006;12.076;2022-07-10T01:31:31;4.50;;;4.10;;
7539;SDS011;3811;49.006;12.076;2022-07-10T01:33:58;4.77;;;4.27;;
7539;SDS011;3811;49.006;12.076;2022-07-10T01:36:27;4.10;;;3.80;;
7539;SDS011;3811;49.006;12.076;2022-07-10T01:38:56;4.63;;;3.90;;
7539;SDS011;3811;49.006;12.076;2022-07-10T01:41:24;5.47;;;3.90;;
7539;SDS011;3811;49.006;12.076;2022-07-10T01:43:52;4.80;;;4.40;;
7539;SDS011;3811;49.006;12.076;2022-07-10T01:46:19;4.57;;;4.27;;
7539;SDS011;3811;49.006;12.076;2022-07-10T01:48:47;5.00;;;4.60;;
7539;SDS011;3811;49.006;12.076;2022-07-10T01:51:14;5.13;;;4.63;;
7539;SDS011;3811;49.006;12.076;2022-07-10T01:53:41;5.40;;;4.33;;
7539;SDS011;3811;49.006;12.076;2022-07-10T01:56:10;7.10;;;4.37;;
7539;SDS011;3811;49.006;12.076;2022-07-10T01:58:38;5.63;;;4.30;;
7539;SDS011;3811;49.006;12.076;2022-07-10T02:01:06;4.57;;;4.17;;
7539;SDS011;3811;49.006;12.076;2022-07-10T02:03:34;4.30;;;4.00;;
7539;SDS011;3811;49.006;12.076;2022-07-10T02:06:18;5.57;;;4.10;;
7539;SDS011;3811;49.006;12.076;2022-07-10T02:08:45;4.77;;;4.37;;
7539;SDS011;3811;49.006;12.076;2022-07-10T02:11:14;4.47;;;4.17;;
7539;SDS011;3811;49.006;12.076;2022-07-10T02:13:41;4.87;;;3.93;;
7539;SDS011;3811;49.006;12.076;2022-07-10T02:16:08;5.40;;;4.10;;
7539;SDS011;3811;49.006;12.076;2022-07-10T02:18:37;4.80;;;4.43;;
7539;SDS011;3811;49.006;12.076;2022-07-10T02:21:05;5.37;;;4.30;;
7539;SDS011;3811;49.006;12.076;2022-07-10T02:23:33;4.70;;;4.30;;
7539;SDS011;3811;49.006;12.076;2022-07-10T02:26:00;4.20;;;3.87;;
7539;SDS011;3811;49.006;12.076;2022-07-10T02:28:29;4.47;;;4.07;;
7539;SDS011;3811;49.006;12.076;2022-07-10T02:30:56;4.67;;;4.30;;
7539;SDS011;3811;49.006;12.076;2022-07-10T02:33:23;5.43;;;4.30;;
7539;SDS011;3811;49.006;12.076;2022-07-10T02:35:50;4.60;;;4.20;;
7539;SDS011;3811;49.006;12.076;2022-07-10T02:38:18;6.20;;;4.07;;
7539;SDS011;3811;49.006;12.076;2022-07-10T02:40:45;8.10;;;4.30;;
7539;SDS011;3811;49.006;12.076;2022-07-10T02:43:14;4.83;;;4.40;;
7539;SDS011;3811;49.006;12.076;2022-07-10T02:45:43;5.23;;;4.33;;
7539;SDS011;3811;49.006;12.076;2022-07-10T02:48:10;4.37;;;4.07;;
7539;SDS011;3811;49.006;12.076;2022-07-10T02:50:37;5.20;;;4.07;;
7539;SDS011;3811;49.006;12.076;2022-07-10T02:53:04;4.73;;;4.17;;
7539;SDS011;3811;49.006;12.076;2022-07-10T02:55:32;4.80;;;4.20;;
7539;SDS011;3811;49.006;12.076;2022-07-10T02:57:59;4.63;;;4.23;;
7539;SDS011;3811;49.006;12.076;2022-07-10T03:00:26;4.73;;;4.33;;
7539;SDS011;3811;49.006;12.076;2022-07-10T03:02:55;4.57;;;4.17;;
7539;SDS011;3811;49.006;12.076;2022-07-10T03:05:22;4.67;;;3.90;;
7539;SDS011;3811;49.006;12.076;2022-07-10T03:07:50;4.77;;;4.30;;
7539;SDS011;3811;49.006;12.076;2022-07-10T03:10:17;5.47;;;3.93;;
7539;SDS011;3811;49.006;12.076;2022-07-10T03:12:45;4.90;;;4.50;;
7539;SDS011;3811;49.006;12.076;2022-07-10T03:15:12;4.73;;;4.33;;
7539;SDS011;3811;49.006;12.076;2022-07-10T03:17:40;4.77;;;4.10;;
7539;SDS011;3811;49.006;12.076;2022-07-10T03:20:09;6.63;;;3.90;;
7539;SDS011;3811;49.006;12.076;2022-07-10T03:22:36;4.57;;;4.17;;
7539;SDS011;3811;49.006;12.076;2022-07-10T03:25:04;4.60;;;4.20;;
7539;SDS011;3811;49.006;12.076;2022-07-10T03:27:31;4.80;;;4.23;;
7539;SDS011;3811;49.006;12.076;2022-07-10T03:29:58;4.87;;;4.37;;
7539;SDS011;3811;49.006;12.076;2022-07-10T03:32:26;5.03;;;4.23;;
7539;SDS011;3811;49.006;12.076;2022-07-10T03:34:53;4.63;;;4.23;;
7539;SDS011;3811;49.006;12.076;2022-07-10T03:37:22;4.00;;;3.70;;
7539;SDS011;3811;49.006;12.076;2022-07-10T03:39:49;5.27;;;3.73;;
7539;SDS011;3811;49.006;12.076;2022-07-10T03:42:16;3.93;;;3.63;;
7539;SDS011;3811;49.006;12.076;2022-07-10T03:44:43;4.47;;;3.77;;
7539;SDS011;3811;49.006;12.076;2022-07-10T03:47:11;3.83;;;3.47;;
7539;SDS011;3811;49.006;12.076;2022-07-10T03:49:38;3.90;;;3.60;;
7539;SDS011;3811;49.006;12.076;2022-07-10T03:52:06;3.97;;;3.67;;
7539;SDS011;3811;49.006;12.076;2022-07-10T03:54:35;4.07;;;3.77;;
7539;SDS011;3811;49.006;12.076;2022-07-10T03:57:02;3.87;;;3.50;;
7539;SDS011;3811;49.006;12.076;2022-07-10T03:59:48;4.00;;;3.60;;
7539;SDS011;3811;49.006;12.076;2022-07-10T04:02:15;4.60;;;3.40;;
7539;SDS011;3811;49.006;12.076;2022-07-10T04:04:42;4.43;;;3.57;;
7539;SDS011;3811;49.006;12.076;2022-07-10T04:07:10;3.70;;;3.40;;
7539;SDS011;3811;49.006;12.076;2022-07-10T04:09:39;4.70;;;3.33;;
7539;SDS011;3811;49.006;12.076;2022-07-10T04:12:06;2.93;;;2.73;;
7539;SDS011;3811;49.006;12.076;2022-07-10T04:14:33;3.60;;;2.90;;
7539;SDS011;3811;49.006;12.076;2022-07-10T04:17:00;3.17;;;2.70;;
7539;SDS011;3811;49.006;12.076;2022-07-10T04:19:27;4.03;;;2.93;;
7539;SDS011;3811;49.006;12.076;2022-07-10T04:21:55;2.87;;;2.67;;
7539;SDS011;3811;49.006;12.076;2022-07-10T04:24:22;3.47;;;3.17;;
7539;SDS011;3811;49.006;12.076;2022-07-10T04:26:51;4.67;;;3.40;;
7539;SDS011;3811;49.006;12.076;2022-07-10T04:29:18;3.37;;;3.13;;
7539;SDS011;3811;49.006;12.076;2022-07-10T04:31:44;3.00;;;2.80;;
7539;SDS011;3811;49.006;12.076;2022-07-10T04:34:12;4.53;;;3.00;;
7539;SDS011;3811;49.006;12.076;2022-07-10T04:36:39;3.87;;;2.80;;
7539;SDS011;3811;49.006;12.076;2022-07-10T04:39:07;3.50;;;3.20;;
7539;SDS011;3811;49.006;12.076;2022-07-10T04:41:34;7.77;;;3.10;;
7539;SDS011;3811;49.006;12.076;2022-07-10T04:44:02;3.40;;;3.07;;
7539;SDS011;3811;49.006;12.076;2022-07-10T04:46:30;3.00;;;2.80;;
7539;SDS011;3811;49.006;12.076;2022-07-10T04:48:57;3.20;;;3.00;;
7539;SDS011;3811;49.006;12.076;2022-07-10T04:51:24;3.40;;;2.90;;
7539;SDS011;3811;49.006;12.076;2022-07-10T04:53:52;3.23;;;3.03;;
7539;SDS011;3811;49.006;12.076;2022-07-10T04:56:20;4.07;;;2.80;;
7539;SDS011;3811;49.006;12.076;2022-07-10T04:58:47;3.40;;;3.20;;
7539;SDS011;3811;49.006;12.076;2022-07-10T05:01:16;4.03;;;2.73;;
7539;SDS011;3811;49.006;12.076;2022-07-10T05:03:43;4.93;;;2.60;;
7539;SDS011;3811;49.006;12.076;2022-07-10T05:06:10;3.50;;;2.43;;
7539;SDS011;3811;49.006;12.076;2022-07-10T05:08:37;5.67;;;2.70;;
7539;SDS011;3811;49.006;12.076;2022-07-10T05:11:04;3.27;;;2.70;;
7539;SDS011;3811;49.006;12.076;2022-07-10T05:13:31;2.83;;;2.50;;
7539;SDS011;3811;49.006;12.076;2022-07-10T05:15:59;3.03;;;2.77;;
7539;SDS011;3811;49.006;12.076;2022-07-10T05:18:27;4.67;;;3.00;;
7539;SDS011;3811;49.006;12.076;2022-07-10T05:20:54;2.97;;;2.67;;
7539;SDS011;3811;49.006;12.076;2022-07-10T05:23:21;2.63;;;2.37;;
7539;SDS011;3811;49.006;12.076;2022-07-10T05:25:48;2.30;;;2.20;;
7539;SDS011;3811;49.006;12.076;2022-07-10T05:28:16;4.87;;;2.60;;
7539;SDS011;3811;49.006;12.076;2022-07-10T05:30:43;2.73;;;2.53;;
7539;SDS011;3811;49.006;12.076;2022-07-10T05:33:11;4.87;;;2.60;;
7539;SDS011;3811;49.006;12.076;2022-07-10T05:35:40;5.33;;;2.80;;
7539;SDS011;3811;49.006;12.076;2022-07-10T05:38:07;4.30;;;2.80;;
7539;SDS011;3811;49.006;12.076;2022-07-10T05:40:34;3.90;;;2.67;;
7539;SDS011;3811;49.006;12.076;2022-07-10T05:43:01;2.77;;;2.40;;
7539;SDS011;3811;49.006;12.076;2022-07-10T05:45:29;3.07;;;2.20;;
7539;SDS011;3811;49.006;12.076;2022-07-10T05:48:03;2.50;;;2.30;;
7539;SDS011;3811;49.006;12.076;2022-07-10T05:50:31;3.73;;;2.27;;
7539;SDS011;3811;49.006;12.076;2022-07-10T05:52:59;2.50;;;2.30;;
7539;SDS011;3811;49.006;12.076;2022-07-10T05:55:26;2.60;;;2.40;;
7539;SDS011;3811;49.006;12.076;2022-07-10T05:57:53;2.47;;;2.27;;
7539;SDS011;3811;49.006;12.076;2022-07-10T06:00:20;3.40;;;2.70;;
7539;SDS011;3811;49.006;12.076;2022-07-10T06:02:48;3.93;;;2.37;;
7539;SDS011;3811;49.006;12.076;2022-07-10T06:05:15;5.50;;;2.30;;
7539;SDS011;3811;49.006;12.076;2022-07-10T06:07:42;3.43;;;2.50;;
7539;SDS011;3811;49.006;12.076;2022-07-10T06:10:11;3.50;;;2.20;;
7539;SDS011;3811;49.006;12.076;2022-07-10T06:12:38;3.17;;;2.50;;
7539;SDS011;3811;49.006;12.076;2022-07-10T06:15:05;3.03;;;2.60;;
7539;SDS011;3811;49.006;12.076;2022-07-10T06:17:33;4.60;;;2.23;;
7539;SDS011;3811;49.006;12.076;2022-07-10T06:20:00;4.37;;;2.23;;
7539;SDS011;3811;49.006;12.076;2022-07-10T06:22:27;2.50;;;2.30;;
7539;SDS011;3811;49.006;12.076;2022-07-10T06:24:59;3.47;;;2.50;;
7539;SDS011;3811;49.006;12.076;2022-07-10T06:27:28;3.53;;;2.57;;
7539;SDS011;3811;49.006;12.076;2022-07-10T06:29:55;2.70;;;2.43;;
7539;SDS011;3811;49.006;12.076;2022-07-10T06:32:23;5.57;;;2.40;;
7539;SDS011;3811;49.006;12.076;2022-07-10T06:34:52;3.53;;;2.80;;
7539;SDS011;3811;49.006;12.076;2022-07-10T06:37:21;2.40;;;2.20;;
7539;SDS011;3811;49.006;12.076;2022-07-10T06:39:49;2.37;;;2.20;;
7539;SDS011;3811;49.006;12.076;2022-07-10T06:42:16;3.13;;;2.43;;
7539;SDS011;3811;49.006;12.076;2022-07-10T06:44:49;2.63;;;2.10;;
7539;SDS011;3811;49.006;12.076;2022-07-10T06:47:16;3.73;;;2.20;;
7539;SDS011;3811;49.006;12.076;2022-07-10T06:50:02;2.97;;;2.20;;
7539;SDS011;3811;49.006;12.076;2022-07-10T06:52:30;4.73;;;2.17;;
7539;SDS011;3811;49.006;12.076;2022-07-10T06:54:58;3.00;;;1.73;;
7539;SDS011;3811;49.006;12.076;2022-07-10T06:57:26;5.33;;;2.67;;
7539;SDS011;3811;49.006;12.076;2022-07-10T06:59:54;3.37;;;2.27;;
7539;SDS011;3811;49.006;12.076;2022-07-10T07:02:21;2.63;;;1.93;;
7539;SDS011;3811;49.006;12.076;2022-07-10T07:04:48;2.83;;;1.97;;
7539;SDS011;3811;49.006;12.076;2022-07-10T07:07:15;3.40;;;1.90;;
7539;SDS011;3811;49.006;12.076;2022-07-10T07:09:42;2.63;;;1.90;;
7539;SDS011;3811;49.006;12.076;2022-07-10T07:12:10;4.00;;;1.90;;
7539;SDS011;3811;49.006;12.076;2022-07-10T07:14:37;2.30;;;1.90;;
7539;SDS011;3811;49.006;12.076;2022-07-10T07:17:08;2.33;;;1.80;;
7539;SDS011;3811;49.006;12.076;2022-07-10T07:19:37;4.90;;;1.90;;
7539;SDS011;3811;49.006;12.076;2022-07-10T07:22:22;2.23;;;2.10;;
7539;SDS011;3811;49.006;12.076;2022-07-10T07:25:08;1.73;;;1.63;;
7539;SDS011;3811;49.006;12.076;2022-07-10T07:27:37;3.37;;;1.80;;
7539;SDS011;3811;49.006;12.076;2022-07-10T07:30:05;1.80;;;1.50;;
7539;SDS011;3811;49.006;12.076;2022-07-10T07:32:35;4.23;;;1.90;;
7539;SDS011;3811;49.006;12.076;2022-07-10T07:35:02;2.17;;;1.87;;
7539;SDS011;3811;49.006;12.076;2022-07-10T07:37:36;1.63;;;1.53;;
7539;SDS011;3811;49.006;12.076;2022-07-10T07:40:04;1.40;;;1.30;;
7539;SDS011;3811;49.006;12.076;2022-07-10T07:42:32;1.07;;;1.00;;
7539;SDS011;3811;49.006;12.076;2022-07-10T07:45:00;1.60;;;1.47;;
7539;SDS011;3811;49.006;12.076;2022-07-10T07:47:29;2.73;;;1.63;;
7539;SDS011;3811;49.006;12.076;2022-07-10T07:50:01;3.77;;;1.40;;
7539;SDS011;3811;49.006;12.076;2022-07-10T07:52:28;2.73;;;1.30;;
7539;SDS011;3811;49.006;12.076;2022-07-10T07:54:56;5.33;;;1.30;;
7539;SDS011;3811;49.006;12.076;2022-07-10T07:57:23;1.77;;;1.47;;
7539;SDS011;3811;49.006;12.076;2022-07-10T07:59:51;1.83;;;1.20;;
7539;SDS011;3811;49.006;12.076;2022-07-10T08:02:18;1.20;;;1.20;;
7539;SDS011;3811;49.006;12.076;2022-07-10T08:04:46;1.60;;;1.50;;
7539;SDS011;3811;49.006;12.076;2022-07-10T08:07:16;1.47;;;1.37;;
7539;SDS011;3811;49.006;12.076;2022-07-10T08:09:43;1.77;;;1.63;;
7539;SDS011;3811;49.006;12.076;2022-07-10T08:12:10;1.90;;;1.20;;
7539;SDS011;3811;49.006;12.076;2022-07-10T08:14:38;1.60;;;1.10;;
7539;SDS011;3811;49.006;12.076;2022-07-10T08:17:07;3.40;;;1.40;;
7539;SDS011;3811;49.006;12.076;2022-07-10T08:19:34;1.40;;;1.30;;
7539;SDS011;3811;49.006;12.076;2022-07-10T08:22:02;1.63;;;1.17;;
7539;SDS011;3811;49.006;12.076;2022-07-10T08:24:30;2.27;;;1.20;;
7539;SDS011;3811;49.006;12.076;2022-07-10T08:26:57;1.43;;;1.33;;
7539;SDS011;3811;49.006;12.076;2022-07-10T08:29:25;2.27;;;1.50;;
7539;SDS011;3811;49.006;12.076;2022-07-10T08:31:52;1.13;;;1.07;;
7539;SDS011;3811;49.006;12.076;2022-07-10T08:34:19;1.33;;;1.23;;
7539;SDS011;3811;49.006;12.076;2022-07-10T08:36:46;2.30;;;1.10;;
7539;SDS011;3811;49.006;12.076;2022-07-10T08:39:14;2.67;;;1.40;;
7539;SDS011;3811;49.006;12.076;2022-07-10T08:41:47;2.03;;;1.23;;
7539;SDS011;3811;49.006;12.076;2022-07-10T08:44:17;4.27;;;1.13;;
7539;SDS011;3811;49.006;12.076;2022-07-10T08:46:44;1.10;;;1.10;;
7539;SDS011;3811;49.006;12.076;2022-07-10T08:49:11;2.60;;;1.60;;
7539;SDS011;3811;49.006;12.076;2022-07-10T08:51:40;1.50;;;1.17;;
7539;SDS011;3811;49.006;12.076;2022-07-10T08:54:13;2.23;;;1.50;;
7539;SDS011;3811;49.006;12.076;2022-07-10T08:56:41;2.63;;;1.37;;
7539;SDS011;3811;49.006;12.076;2022-07-10T08:59:09;4.97;;;1.40;;
7539;SDS011;3811;49.006;12.076;2022-07-10T09:01:40;1.30;;;1.23;;
7539;SDS011;3811;49.006;12.076;2022-07-10T09:04:07;1.33;;;1.23;;
7539;SDS011;3811;49.006;12.076;2022-07-10T09:06:43;2.20;;;1.30;;
7539;SDS011;3811;49.006;12.076;2022-07-10T09:09:10;1.57;;;1.20;;
7539;SDS011;3811;49.006;12.076;2022-07-10T09:11:38;2.63;;;1.20;;
7539;SDS011;3811;49.006;12.076;2022-07-10T09:14:07;3.80;;;1.27;;
7539;SDS011;3811;49.006;12.076;2022-07-10T09:16:37;3.03;;;1.20;;
7539;SDS011;3811;49.006;12.076;2022-07-10T09:19:16;1.43;;;1.30;;
7539;SDS011;3811;49.006;12.076;2022-07-10T09:21:43;3.03;;;1.23;;
7539;SDS011;3811;49.006;12.076;2022-07-10T09:24:11;1.50;;;1.40;;
7539;SDS011;3811;49.006;12.076;2022-07-10T09:26:40;1.87;;;1.30;;
7539;SDS011;3811;49.006;12.076;2022-07-10T09:29:08;1.80;;;1.27;;
7539;SDS011;3811;49.006;12.076;2022-07-10T09:31:50;1.10;;;0.93;;
7539;SDS011;3811;49.006;12.076;2022-07-10T09:34:18;1.13;;;1.10;;
7539;SDS011;3811;49.006;12.076;2022-07-10T09:37:17;2.47;;;1.20;;
7539;SDS011;3811;49.006;12.076;2022-07-10T09:39:51;3.07;;;1.07;;
7539;SDS011;3811;49.006;12.076;2022-07-10T09:42:26;1.10;;;1.10;;
7539;SDS011;3811;49.006;12.076;2022-07-10T09:47:42;1.20;;;1.10;;
7539;SDS011;3811;49.006;12.076;2022-07-10T09:50:19;3.43;;;1.20;;
7539;SDS011;3811;49.006;12.076;2022-07-10T09:52:48;2.50;;;1.23;;
7539;SDS011;3811;49.006;12.076;2022-07-10T09:55:17;2.77;;;1.20;;
7539;SDS011;3811;49.006;12.076;2022-07-10T09:57:45;1.80;;;1.10;;
7539;SDS011;3811;49.006;12.076;2022-07-10T10:00:21;1.87;;;1.17;;
7539;SDS011;3811;49.006;12.076;2022-07-10T10:02:53;1.57;;;0.90;;
7539;SDS011;3811;49.006;12.076;2022-07-10T10:05:22;2.13;;;0.93;;
7539;SDS011;3811;49.006;12.076;2022-07-10T10:08:01;2.77;;;1.27;;
7539;SDS011;3811;49.006;12.076;2022-07-10T10:10:35;2.70;;;1.40;;
7539;SDS011;3811;49.006;12.076;2022-07-10T10:13:03;3.03;;;1.30;;
7539;SDS011;3811;49.006;12.076;2022-07-10T10:15:34;1.23;;;1.10;;
7539;SDS011;3811;49.006;12.076;2022-07-10T10:18:02;1.90;;;1.30;;
7539;SDS011;3811;49.006;12.076;2022-07-10T10:20:30;1.87;;;1.20;;
7539;SDS011;3811;49.006;12.076;2022-07-10T10:23:06;3.00;;;1.50;;
7539;SDS011;3811;49.006;12.076;2022-07-10T10:25:36;1.10;;;1.10;;
7539;SDS011;3811;49.006;12.076;2022-07-10T10:28:05;1.40;;;1.20;;
7539;SDS011;3811;49.006;12.076;2022-07-10T10:30:37;1.43;;;1.30;;
7539;SDS011;3811;49.006;12.076;2022-07-10T10:36:08;1.63;;;1.40;;
7539;SDS011;3811;49.006;12.076;2022-07-10T10:41:27;2.53;;;1.30;;
7539;SDS011;3811;49.006;12.076;2022-07-10T10:47:04;2.03;;;1.47;;
7539;SDS011;3811;49.006;12.076;2022-07-10T10:49:48;2.13;;;1.70;;
7539;SDS011;3811;49.006;12.076;2022-07-10T10:52:17;2.50;;;1.50;;
7539;SDS011;3811;49.006;12.076;2022-07-10T10:55:03;2.03;;;1.30;;
7539;SDS011;3811;49.006;12.076;2022-07-10T10:57:38;1.30;;;1.20;;
7539;SDS011;3811;49.006;12.076;2022-07-10T11:00:11;1.37;;;1.27;;
7539;SDS011;3811;49.006;12.076;2022-07-10T11:02:42;1.50;;;1.10;;
7539;SDS011;3811;49.006;12.076;2022-07-10T11:08:09;2.97;;;1.23;;
7539;SDS011;3811;49.006;12.076;2022-07-10T11:10:38;5.97;;;1.00;;
7539;SDS011;3811;49.006;12.076;2022-07-10T11:13:06;1.33;;;1.20;;
7539;SDS011;3811;49.006;12.076;2022-07-10T11:15:34;1.83;;;0.87;;
7539;SDS011;3811;49.006;12.076;2022-07-10T11:18:05;1.90;;;1.00;;
7539;SDS011;3811;49.006;12.076;2022-07-10T11:20:33;2.53;;;1.23;;
7539;SDS011;3811;49.006;12.076;2022-07-10T11:26:03;1.03;;;0.93;;
7539;SDS011;3811;49.006;12.076;2022-07-10T11:31:21;3.73;;;1.20;;
7539;SDS011;3811;49.006;12.076;2022-07-10T11:33:51;1.43;;;1.00;;
7539;SDS011;3811;49.006;12.076;2022-07-10T11:36:20;0.80;;;0.80;;
7539;SDS011;3811;49.006;12.076;2022-07-10T11:38:55;1.47;;;0.87;;
7539;SDS011;3811;49.006;12.076;2022-07-10T11:41:23;1.83;;;0.87;;
7539;SDS011;3811;49.006;12.076;2022-07-10T11:43:51;1.53;;;0.97;;
7539;SDS011;3811;49.006;12.076;2022-07-10T11:46:20;1.60;;;1.00;;
7539;SDS011;3811;49.006;12.076;2022-07-10T11:48:49;1.63;;;1.00;;
7539;SDS011;3811;49.006;12.076;2022-07-10T11:51:23;2.20;;;0.90;;
7539;SDS011;3811;49.006;12.076;2022-07-10T11:53:58;1.23;;;0.93;;
7539;SDS011;3811;49.006;12.076;2022-07-10T11:56:27;1.20;;;0.77;;
7539;SDS011;3811;49.006;12.076;2022-07-10T11:58:56;0.87;;;0.87;;
7539;SDS011;3811;49.006;12.076;2022-07-10T12:01:25;2.60;;;1.20;;
7539;SDS011;3811;49.006;12.076;2022-07-10T12:03:59;0.80;;;0.60;;
7539;SDS011;3811;49.006;12.076;2022-07-10T12:06:28;0.80;;;0.80;;
7539;SDS011;3811;49.006;12.076;2022-07-10T12:08:56;2.27;;;1.33;;
7539;SDS011;3811;49.006;12.076;2022-07-10T12:11:28;1.60;;;1.00;;
7539;SDS011;3811;49.006;12.076;2022-07-10T12:14:08;1.87;;;0.90;;
7539;SDS011;3811;49.006;12.076;2022-07-10T12:16:36;1.20;;;0.70;;
7539;SDS011;3811;49.006;12.076;2022-07-10T12:19:05;0.80;;;0.80;;
7539;SDS011;3811;49.006;12.076;2022-07-10T12:21:34;0.93;;;0.70;;
7539;SDS011;3811;49.006;12.076;2022-07-10T12:24:01;0.90;;;0.87;;
7539;SDS011;3811;49.006;12.076;2022-07-10T12:26:32;0.80;;;0.80;;
7539;SDS011;3811;49.006;12.076;2022-07-10T12:29:01;2.87;;;1.03;;
7539;SDS011;3811;49.006;12.076;2022-07-10T12:31:30;1.70;;;0.83;;
7539;SDS011;3811;49.006;12.076;2022-07-10T12:33:58;0.77;;;0.77;;
7539;SDS011;3811;49.006;12.076;2022-07-10T12:36:42;1.07;;;0.70;;
7539;SDS011;3811;49.006;12.076;2022-07-10T12:39:10;0.60;;;0.60;;
7539;SDS011;3811;49.006;12.076;2022-07-10T12:41:54;0.60;;;0.60;;
7539;SDS011;3811;49.006;12.076;2022-07-10T12:44:35;2.17;;;0.90;;
7539;SDS011;3811;49.006;12.076;2022-07-10T12:47:05;3.80;;;0.70;;
7539;SDS011;3811;49.006;12.076;2022-07-10T12:49:48;1.83;;;0.80;;
7539;SDS011;3811;49.006;12.076;2022-07-10T12:52:21;0.70;;;0.70;;
7539;SDS011;3811;49.006;12.076;2022-07-10T12:54:49;0.87;;;0.80;;
7539;SDS011;3811;49.006;12.076;2022-07-10T12:57:16;0.50;;;0.50;;
7539;SDS011;3811;49.006;12.076;2022-07-10T12:59:44;0.53;;;0.50;;
7539;SDS011;3811;49.006;12.076;2022-07-10T13:02:15;1.40;;;0.63;;
7539;SDS011;3811;49.006;12.076;2022-07-10T13:04:51;0.93;;;0.53;;
7539;SDS011;3811;49.006;12.076;2022-07-10T13:07:29;1.33;;;0.70;;
7539;SDS011;3811;49.006;12.076;2022-07-10T13:09:58;0.70;;;0.70;;
7539;SDS011;3811;49.006;12.076;2022-07-10T13:12:26;0.60;;;0.60;;
7539;SDS011;3811;49.006;12.076;2022-07-10T13:14:53;0.60;;;0.60;;
7539;SDS011;3811;49.006;12.076;2022-07-10T13:17:20;0.70;;;0.70;;
7539;SDS011;3811;49.006;12.076;2022-07-10T13:19:48;1.90;;;0.87;;
7539;SDS011;3811;49.006;12.076;2022-07-10T13:22:16;0.67;;;0.67;;
7539;SDS011;3811;49.006;12.076;2022-07-10T13:24:44;1.13;;;0.40;;
7539;SDS011;3811;49.006;12.076;2022-07-10T13:27:11;0.90;;;0.60;;
7539;SDS011;3811;49.006;12.076;2022-07-10T13:29:39;0.60;;;0.60;;
7539;SDS011;3811;49.006;12.076;2022-07-10T13:32:07;1.50;;;0.70;;
7539;SDS011;3811;49.006;12.076;2022-07-10T13:34:34;0.83;;;0.60;;
7539;SDS011;3811;49.006;12.076;2022-07-10T13:37:01;1.60;;;0.70;;
7539;SDS011;3811;49.006;12.076;2022-07-10T13:39:29;1.17;;;0.70;;
7539;SDS011;3811;49.006;12.076;2022-07-10T13:41:57;0.70;;;0.70;;
7539;SDS011;3811;49.006;12.076;2022-07-10T13:44:25;0.70;;;0.70;;
7539;SDS011;3811;49.006;12.076;2022-07-10T13:46:52;2.07;;;0.70;;
7539;SDS011;3811;49.006;12.076;2022-07-10T13:49:19;0.77;;;0.77;;
7539;SDS011;3811;49.006;12.076;2022-07-10T13:51:47;0.70;;;0.70;;
7539;SDS011;3811;49.006;12.076;2022-07-10T13:54:14;0.87;;;0.80;;
7539;SDS011;3811;49.006;12.076;2022-07-10T13:56:42;0.77;;;0.77;;
7539;SDS011;3811;49.006;12.076;2022-07-10T13:59:11;0.80;;;0.80;;
7539;SDS011;3811;49.006;12.076;2022-07-10T14:01:38;1.93;;;0.90;;
7539;SDS011;3811;49.006;12.076;2022-07-10T14:04:05;0.70;;;0.70;;
7539;SDS011;3811;49.006;12.076;2022-07-10T14:06:33;0.73;;;0.73;;
7539;SDS011;3811;49.006;12.076;2022-07-10T14:09:01;0.70;;;0.70;;
7539;SDS011;3811;49.006;12.076;2022-07-10T14:11:28;2.07;;;0.80;;
7539;SDS011;3811;49.006;12.076;2022-07-10T14:13:55;1.50;;;0.70;;
7539;SDS011;3811;49.006;12.076;2022-07-10T14:16:24;1.43;;;0.70;;
7539;SDS011;3811;49.006;12.076;2022-07-10T14:18:51;0.80;;;0.80;;
7539;SDS011;3811;49.006;12.076;2022-07-10T14:21:19;0.70;;;0.70;;
7539;SDS011;3811;49.006;12.076;2022-07-10T14:23:50;1.10;;;0.70;;
7539;SDS011;3811;49.006;12.076;2022-07-10T14:26:17;1.57;;;0.93;;
7539;SDS011;3811;49.006;12.076;2022-07-10T14:28:44;1.10;;;0.83;;
7539;SDS011;3811;49.006;12.076;2022-07-10T14:31:12;0.80;;;0.67;;
7539;SDS011;3811;49.006;12.076;2022-07-10T14:33:40;2.70;;;0.93;;
7539;SDS011;3811;49.006;12.076;2022-07-10T14:36:07;1.63;;;0.80;;
7539;SDS011;3811;49.006;12.076;2022-07-10T14:38:34;1.63;;;0.63;;
7539;SDS011;3811;49.006;12.076;2022-07-10T14:41:02;1.90;;;0.90;;
7539;SDS011;3811;49.006;12.076;2022-07-10T14:43:31;0.80;;;0.80;;
7539;SDS011;3811;49.006;12.076;2022-07-10T14:45:58;1.50;;;0.80;;
7539;SDS011;3811;49.006;12.076;2022-07-10T14:48:28;1.30;;;0.90;;
7539;SDS011;3811;49.006;12.076;2022-07-10T14:50:58;0.80;;;0.80;;
7539;SDS011;3811;49.006;12.076;2022-07-10T14:53:25;0.80;;;0.80;;
7539;SDS011;3811;49.006;12.076;2022-07-10T14:55:53;1.47;;;0.77;;
7539;SDS011;3811;49.006;12.076;2022-07-10T14:58:21;0.70;;;0.70;;
7539;SDS011;3811;49.006;12.076;2022-07-10T15:00:48;0.60;;;0.60;;
7539;SDS011;3811;49.006;12.076;2022-07-10T15:03:16;1.23;;;0.70;;
7539;SDS011;3811;49.006;12.076;2022-07-10T15:05:43;2.83;;;0.90;;
7539;SDS011;3811;49.006;12.076;2022-07-10T15:08:11;1.30;;;1.00;;
7539;SDS011;3811;49.006;12.076;2022-07-10T15:10:39;0.93;;;0.70;;
7539;SDS011;3811;49.006;12.076;2022-07-10T15:13:11;0.80;;;0.80;;
7539;SDS011;3811;49.006;12.076;2022-07-10T15:15:38;6.00;;;0.87;;
7539;SDS011;3811;49.006;12.076;2022-07-10T15:18:05;2.37;;;0.70;;
7539;SDS011;3811;49.006;12.076;2022-07-10T15:20:33;0.80;;;0.80;;
7539;SDS011;3811;49.006;12.076;2022-07-10T15:23:02;1.37;;;0.80;;
7539;SDS011;3811;49.006;12.076;2022-07-10T15:25:30;0.70;;;0.70;;
7539;SDS011;3811;49.006;12.076;2022-07-10T15:27:57;2.00;;;0.70;;
7539;SDS011;3811;49.006;12.076;2022-07-10T15:30:27;0.70;;;0.70;;